This demonstration page uses our WeatherBlox Daily Observations layout. Learn more.

39.29038, -76.61219

Hourly Observations for April 25, 2019

Temp ( °F °C ) Dew Point ( °F °C ) Humidity (%) Winds ( mph kmh ) Pressure ( in mb ) Visibility ( mi km ) Precip ( " mm )
12:54 am 00:54 undefined 66 18.9 37 2.8 34 34 undefined N/A 29.91 1013 N/A 0 0
1:54 am 01:54 undefined 65 18.3 35 1.7 33 33 undefined N/A 29.89 1012 N/A 0 0
2:54 am 02:54 undefined 64 17.8 34 1.1 33 33 undefined N/A 29.89 1012 N/A 0 0
3:54 am 03:54 undefined 64 17.8 34 1.1 33 33 undefined N/A 29.9 1012 N/A 0 0
4:54 am 04:54 undefined 64 17.8 37 2.8 37 37 undefined N/A 29.9 1013 N/A 0 0
5:54 am 05:54 undefined 63 17.2 38 3.3 40 40 undefined N/A 29.91 1013 N/A 0 0
6:54 am 06:54 undefined 63 17.2 38 3.3 40 40 undefined N/A 29.93 1014 N/A 0 0
7:54 am 07:54 undefined 63 17.2 38 3.3 40 40 undefined N/A 29.94 1014 N/A 0 0
8:54 am 08:54 undefined 63 17.2 39 3.9 41 41 undefined N/A 29.95 1014 N/A 0 0
9:54 am 09:54 undefined 63 17.2 42 5.6 47 47 undefined N/A 29.93 1014 N/A 0 0
10:54 am 10:54 undefined 67 19.4 46 7.8 47 47 undefined N/A 29.94 1014 N/A 0 0
11:54 am 11:54 undefined 67 19.4 45 7.2 45 45 undefined N/A 29.93 1014 N/A 0 0
12:54 pm 12:54 undefined 70 21.1 45 7.2 41 41 undefined N/A 29.92 1013 N/A 0 0
1:54 pm 13:54 undefined 69 20.6 45 7.2 42 42 undefined N/A 29.91 1013 N/A 0 0
2:54 pm 14:54 undefined 70 21.1 47 8.3 44 44 undefined N/A 29.9 1012 N/A 0 0
3:54 pm 15:54 undefined 71 21.7 48 8.9 44 44 undefined N/A 29.87 1012 N/A 0 0
4:54 pm 16:54 undefined 71 21.7 48 8.9 44 44 undefined N/A 29.88 1012 N/A 0 0
5:54 pm 17:54 undefined 70 21.1 48 8.9 46 46 undefined N/A 29.87 1012 N/A 0 0
6:54 pm 18:54 undefined 69 20.6 50 10 51 51 undefined N/A 29.86 1011 N/A 0 0
7:54 pm 19:54 undefined 67 19.4 51 10.6 57 57 undefined N/A 29.88 1012 N/A 0 0
8:54 pm 20:54 undefined 66 18.9 50 10 56 56 undefined N/A 29.88 1012 N/A 0 0
9:54 pm 21:54 undefined 65 18.3 46 7.8 51 51 undefined N/A 29.9 1013 N/A 0 0
10:54 pm 22:54 undefined 64 17.8 49 9.4 58 58 undefined N/A 29.89 1012 N/A 0 0

Powered by AerisWeather